sensor_id;sensor_type;location;lat;lon;timestamp;temperature;humidity
11961;DHT22;6040;49.358;11.140;2023-08-01T00:01:50;17.40;99.90
11961;DHT22;6040;49.358;11.140;2023-08-01T00:04:17;17.30;99.90
11961;DHT22;6040;49.358;11.140;2023-08-01T00:06:45;17.20;99.90
11961;DHT22;6040;49.358;11.140;2023-08-01T00:09:12;17.20;99.90
11961;DHT22;6040;49.358;11.140;2023-08-01T00:11:39;17.20;99.90
11961;DHT22;6040;49.358;11.140;2023-08-01T00:14:05;17.20;99.90
11961;DHT22;6040;49.358;11.140;2023-08-01T00:16:32;17.20;99.90
11961;DHT22;6040;49.358;11.140;2023-08-01T00:19:00;17.30;99.90
11961;DHT22;6040;49.358;11.140;2023-08-01T00:21:27;17.30;99.90
11961;DHT22;6040;49.358;11.140;2023-08-01T00:23:57;17.20;99.90
11961;DHT22;6040;49.358;11.140;2023-08-01T00:26:24;17.20;99.90
11961;DHT22;6040;49.358;11.140;2023-08-01T00:28:51;17.10;99.90
11961;DHT22;6040;49.358;11.140;2023-08-01T00:31:18;17.20;99.90
11961;DHT22;6040;49.358;11.140;2023-08-01T00:33:44;17.10;99.90
11961;DHT22;6040;49.358;11.140;2023-08-01T00:36:11;17.10;99.90
11961;DHT22;6040;49.358;11.140;2023-08-01T00:38:38;17.10;99.90
11961;DHT22;6040;49.358;11.140;2023-08-01T00:41:07;17.10;99.90
11961;DHT22;6040;49.358;11.140;2023-08-01T00:43:34;17.10;99.90
11961;DHT22;6040;49.358;11.140;2023-08-01T00:46:03;17.20;99.90
11961;DHT22;6040;49.358;11.140;2023-08-01T00:48:31;17.10;99.90
11961;DHT22;6040;49.358;11.140;2023-08-01T00:50:59;17.10;99.90
11961;DHT22;6040;49.358;11.140;2023-08-01T00:53:27;17.10;99.90
11961;DHT22;6040;49.358;11.140;2023-08-01T00:55:55;17.10;99.90
11961;DHT22;6040;49.358;11.140;2023-08-01T00:58:24;17.10;99.90
11961;DHT22;6040;49.358;11.140;2023-08-01T01:00:51;17.10;99.90
11961;DHT22;6040;49.358;11.140;2023-08-01T01:03:18;17.10;99.90
11961;DHT22;6040;49.358;11.140;2023-08-01T01:05:52;17.10;99.90
11961;DHT22;6040;49.358;11.140;2023-08-01T01:08:20;17.00;99.90
11961;DHT22;6040;49.358;11.140;2023-08-01T01:10:47;17.00;99.90
11961;DHT22;6040;49.358;11.140;2023-08-01T01:13:14;17.00;99.90
11961;DHT22;6040;49.358;11.140;2023-08-01T01:15:42;17.00;99.90
11961;DHT22;6040;49.358;11.140;2023-08-01T01:18:08;17.00;99.90
11961;DHT22;6040;49.358;11.140;2023-08-01T01:20:37;17.00;99.90
11961;DHT22;6040;49.358;11.140;2023-08-01T01:23:05;17.10;99.90
11961;DHT22;6040;49.358;11.140;2023-08-01T01:25:32;17.00;99.90
11961;DHT22;6040;49.358;11.140;2023-08-01T01:28:02;17.00;99.90
11961;DHT22;6040;49.358;11.140;2023-08-01T01:30:30;17.00;99.90
11961;DHT22;6040;49.358;11.140;2023-08-01T01:32:59;17.10;99.90
11961;DHT22;6040;49.358;11.140;2023-08-01T01:35:26;17.00;99.90
11961;DHT22;6040;49.358;11.140;2023-08-01T01:37:54;17.00;99.90
11961;DHT22;6040;49.358;11.140;2023-08-01T01:40:24;17.00;99.90
11961;DHT22;6040;49.358;11.140;2023-08-01T01:42:50;17.00;99.90
11961;DHT22;6040;49.358;11.140;2023-08-01T01:45:17;17.00;99.90
11961;DHT22;6040;49.358;11.140;2023-08-01T01:47:44;17.00;99.90
11961;DHT22;6040;49.358;11.140;2023-08-01T01:50:11;17.00;99.90
11961;DHT22;6040;49.358;11.140;2023-08-01T01:52:38;17.00;99.90
11961;DHT22;6040;49.358;11.140;2023-08-01T01:55:07;16.90;99.90
11961;DHT22;6040;49.358;11.140;2023-08-01T01:57:34;16.90;99.90
11961;DHT22;6040;49.358;11.140;2023-08-01T02:00:01;16.90;99.90
11961;DHT22;6040;49.358;11.140;2023-08-01T02:02:28;16.90;99.90
11961;DHT22;6040;49.358;11.140;2023-08-01T02:04:55;16.90;99.90
11961;DHT22;6040;49.358;11.140;2023-08-01T02:07:22;16.90;99.90
11961;DHT22;6040;49.358;11.140;2023-08-01T02:09:49;16.90;99.90
11961;DHT22;6040;49.358;11.140;2023-08-01T02:12:17;16.90;99.90
11961;DHT22;6040;49.358;11.140;2023-08-01T02:14:44;16.90;99.90
11961;DHT22;6040;49.358;11.140;2023-08-01T02:17:10;16.80;99.90
11961;DHT22;6040;49.358;11.140;2023-08-01T02:19:37;16.80;99.90
11961;DHT22;6040;49.358;11.140;2023-08-01T02:22:04;16.80;99.90
11961;DHT22;6040;49.358;11.140;2023-08-01T02:24:31;16.80;99.90
11961;DHT22;6040;49.358;11.140;2023-08-01T02:26:58;16.80;99.90
11961;DHT22;6040;49.358;11.140;2023-08-01T02:29:26;16.80;99.90
11961;DHT22;6040;49.358;11.140;2023-08-01T02:31:53;16.80;99.90
11961;DHT22;6040;49.358;11.140;2023-08-01T02:34:20;16.80;99.90
11961;DHT22;6040;49.358;11.140;2023-08-01T02:36:47;16.80;99.90
11961;DHT22;6040;49.358;11.140;2023-08-01T02:39:14;16.80;99.90
11961;DHT22;6040;49.358;11.140;2023-08-01T02:41:40;16.80;99.90
11961;DHT22;6040;49.358;11.140;2023-08-01T02:44:07;16.70;99.90
11961;DHT22;6040;49.358;11.140;2023-08-01T02:46:35;16.70;99.90
11961;DHT22;6040;49.358;11.140;2023-08-01T02:49:02;16.70;99.90
11961;DHT22;6040;49.358;11.140;2023-08-01T02:51:29;16.70;99.90
11961;DHT22;6040;49.358;11.140;2023-08-01T02:53:56;16.70;99.90
11961;DHT22;6040;49.358;11.140;2023-08-01T02:56:23;16.60;99.90
11961;DHT22;6040;49.358;11.140;2023-08-01T02:58:49;16.60;99.90
11961;DHT22;6040;49.358;11.140;2023-08-01T03:01:17;16.60;99.90
11961;DHT22;6040;49.358;11.140;2023-08-01T03:03:45;16.70;99.90
11961;DHT22;6040;49.358;11.140;2023-08-01T03:06:12;16.70;99.90
11961;DHT22;6040;49.358;11.140;2023-08-01T03:08:39;16.60;99.90
11961;DHT22;6040;49.358;11.140;2023-08-01T03:11:06;16.60;99.90
11961;DHT22;6040;49.358;11.140;2023-08-01T03:13:33;16.60;99.90
11961;DHT22;6040;49.358;11.140;2023-08-01T03:16:00;16.70;99.90
11961;DHT22;6040;49.358;11.140;2023-08-01T03:18:26;16.60;99.90
11961;DHT22;6040;49.358;11.140;2023-08-01T03:20:55;16.60;99.90
11961;DHT22;6040;49.358;11.140;2023-08-01T03:23:21;16.60;99.90
11961;DHT22;6040;49.358;11.140;2023-08-01T03:25:48;16.50;99.90
11961;DHT22;6040;49.358;11.140;2023-08-01T03:28:15;16.60;99.90
11961;DHT22;6040;49.358;11.140;2023-08-01T03:30:42;16.50;99.90
11961;DHT22;6040;49.358;11.140;2023-08-01T03:33:09;16.50;99.90
11961;DHT22;6040;49.358;11.140;2023-08-01T03:35:36;16.60;99.90
11961;DHT22;6040;49.358;11.140;2023-08-01T03:38:04;16.50;99.90
11961;DHT22;6040;49.358;11.140;2023-08-01T03:40:31;16.60;99.90
11961;DHT22;6040;49.358;11.140;2023-08-01T03:42:58;16.60;99.90
11961;DHT22;6040;49.358;11.140;2023-08-01T03:45:25;16.60;99.90
11961;DHT22;6040;49.358;11.140;2023-08-01T03:47:51;16.60;99.90
11961;DHT22;6040;49.358;11.140;2023-08-01T03:50:18;16.70;99.90
11961;DHT22;6040;49.358;11.140;2023-08-01T03:52:45;16.60;99.90
11961;DHT22;6040;49.358;11.140;2023-08-01T03:55:13;16.60;99.90
11961;DHT22;6040;49.358;11.140;2023-08-01T03:57:40;16.70;99.90
11961;DHT22;6040;49.358;11.140;2023-08-01T04:00:09;16.60;99.90
11961;DHT22;6040;49.358;11.140;2023-08-01T04:02:39;16.60;99.90
11961;DHT22;6040;49.358;11.140;2023-08-01T04:05:07;16.60;99.90
11961;DHT22;6040;49.358;11.140;2023-08-01T04:07:34;16.50;99.90
11961;DHT22;6040;49.358;11.140;2023-08-01T04:10:01;16.60;99.90
11961;DHT22;6040;49.358;11.140;2023-08-01T04:12:30;16.60;99.90
11961;DHT22;6040;49.358;11.140;2023-08-01T04:14:57;16.60;99.90
11961;DHT22;6040;49.358;11.140;2023-08-01T04:17:24;16.70;99.90
11961;DHT22;6040;49.358;11.140;2023-08-01T04:19:51;16.60;99.90
11961;DHT22;6040;49.358;11.140;2023-08-01T04:22:18;16.60;99.90
11961;DHT22;6040;49.358;11.140;2023-08-01T04:24:45;16.60;99.90
11961;DHT22;6040;49.358;11.140;2023-08-01T04:27:11;16.60;99.90
11961;DHT22;6040;49.358;11.140;2023-08-01T04:29:39;16.60;99.90
11961;DHT22;6040;49.358;11.140;2023-08-01T04:32:07;16.60;99.90
11961;DHT22;6040;49.358;11.140;2023-08-01T04:34:34;16.60;99.90
11961;DHT22;6040;49.358;11.140;2023-08-01T04:37:01;16.50;99.90
11961;DHT22;6040;49.358;11.140;2023-08-01T04:39:27;16.50;99.90
11961;DHT22;6040;49.358;11.140;2023-08-01T04:41:54;16.60;99.90
11961;DHT22;6040;49.358;11.140;2023-08-01T04:44:21;16.50;99.90
11961;DHT22;6040;49.358;11.140;2023-08-01T04:46:49;16.50;99.90
11961;DHT22;6040;49.358;11.140;2023-08-01T04:49:16;16.50;99.90
11961;DHT22;6040;49.358;11.140;2023-08-01T04:51:44;16.40;99.90
11961;DHT22;6040;49.358;11.140;2023-08-01T04:54:10;16.50;99.90
11961;DHT22;6040;49.358;11.140;2023-08-01T04:56:37;16.50;99.90
11961;DHT22;6040;49.358;11.140;2023-08-01T04:59:04;16.50;99.90
11961;DHT22;6040;49.358;11.140;2023-08-01T05:01:31;16.50;99.90
11961;DHT22;6040;49.358;11.140;2023-08-01T05:03:59;16.50;99.90
11961;DHT22;6040;49.358;11.140;2023-08-01T05:06:26;16.50;99.90
11961;DHT22;6040;49.358;11.140;2023-08-01T05:08:53;16.50;99.90
11961;DHT22;6040;49.358;11.140;2023-08-01T05:11:20;16.50;99.90
11961;DHT22;6040;49.358;11.140;2023-08-01T05:13:49;16.50;99.90
11961;DHT22;6040;49.358;11.140;2023-08-01T05:16:16;16.50;99.90
11961;DHT22;6040;49.358;11.140;2023-08-01T05:18:42;16.60;99.90
11961;DHT22;6040;49.358;11.140;2023-08-01T05:21:11;16.60;99.90
11961;DHT22;6040;49.358;11.140;2023-08-01T05:23:37;16.60;99.90
11961;DHT22;6040;49.358;11.140;2023-08-01T05:26:04;16.60;99.90
11961;DHT22;6040;49.358;11.140;2023-08-01T05:28:31;16.60;99.90
11961;DHT22;6040;49.358;11.140;2023-08-01T05:30:58;16.70;99.90
11961;DHT22;6040;49.358;11.140;2023-08-01T05:33:25;16.60;99.90
11961;DHT22;6040;49.358;11.140;2023-08-01T05:35:51;16.60;99.90
11961;DHT22;6040;49.358;11.140;2023-08-01T05:38:19;16.60;99.90
11961;DHT22;6040;49.358;11.140;2023-08-01T05:40:46;16.60;99.90
11961;DHT22;6040;49.358;11.140;2023-08-01T05:43:13;16.70;99.90
11961;DHT22;6040;49.358;11.140;2023-08-01T05:45:40;16.70;99.90
11961;DHT22;6040;49.358;11.140;2023-08-01T05:48:07;16.70;99.90
11961;DHT22;6040;49.358;11.140;2023-08-01T05:50:33;16.70;99.90
11961;DHT22;6040;49.358;11.140;2023-08-01T05:53:00;16.70;99.90
11961;DHT22;6040;49.358;11.140;2023-08-01T05:55:28;16.80;99.90
11961;DHT22;6040;49.358;11.140;2023-08-01T05:57:55;16.80;99.90
11961;DHT22;6040;49.358;11.140;2023-08-01T06:00:22;16.70;99.90
11961;DHT22;6040;49.358;11.140;2023-08-01T06:02:49;16.80;99.90
11961;DHT22;6040;49.358;11.140;2023-08-01T06:05:16;16.70;99.90
11961;DHT22;6040;49.358;11.140;2023-08-01T06:07:42;16.80;99.90
11961;DHT22;6040;49.358;11.140;2023-08-01T06:10:09;16.80;99.90
11961;DHT22;6040;49.358;11.140;2023-08-01T06:12:38;16.80;99.90
11961;DHT22;6040;49.358;11.140;2023-08-01T06:15:05;16.80;99.90
11961;DHT22;6040;49.358;11.140;2023-08-01T06:17:32;16.80;99.90
11961;DHT22;6040;49.358;11.140;2023-08-01T06:19:59;16.80;99.90
11961;DHT22;6040;49.358;11.140;2023-08-01T06:22:29;16.80;99.90
11961;DHT22;6040;49.358;11.140;2023-08-01T06:24:56;16.80;99.90
11961;DHT22;6040;49.358;11.140;2023-08-01T06:27:22;16.80;99.90
11961;DHT22;6040;49.358;11.140;2023-08-01T06:29:51;16.90;99.90
11961;DHT22;6040;49.358;11.140;2023-08-01T06:32:17;16.90;99.90
11961;DHT22;6040;49.358;11.140;2023-08-01T06:34:44;16.90;99.90
11961;DHT22;6040;49.358;11.140;2023-08-01T06:37:11;16.90;99.90
11961;DHT22;6040;49.358;11.140;2023-08-01T06:39:38;17.00;99.90
11961;DHT22;6040;49.358;11.140;2023-08-01T06:42:05;17.00;99.90
11961;DHT22;6040;49.358;11.140;2023-08-01T06:44:32;17.00;99.90
11961;DHT22;6040;49.358;11.140;2023-08-01T06:47:00;17.00;99.90
11961;DHT22;6040;49.358;11.140;2023-08-01T06:49:27;17.90;99.90
11961;DHT22;6040;49.358;11.140;2023-08-01T06:51:54;17.00;99.90
11961;DHT22;6040;49.358;11.140;2023-08-01T06:54:21;17.10;99.90
11961;DHT22;6040;49.358;11.140;2023-08-01T06:56:47;17.00;99.90
11961;DHT22;6040;49.358;11.140;2023-08-01T06:59:14;17.00;99.90
11961;DHT22;6040;49.358;11.140;2023-08-01T07:01:41;17.00;99.90
11961;DHT22;6040;49.358;11.140;2023-08-01T07:04:10;17.00;99.90
11961;DHT22;6040;49.358;11.140;2023-08-01T07:06:37;17.00;99.90
11961;DHT22;6040;49.358;11.140;2023-08-01T07:09:04;17.10;99.90
11961;DHT22;6040;49.358;11.140;2023-08-01T07:11:31;17.10;99.90
11961;DHT22;6040;49.358;11.140;2023-08-01T07:13:58;17.10;99.90
11961;DHT22;6040;49.358;11.140;2023-08-01T07:16:24;17.20;99.90
11961;DHT22;6040;49.358;11.140;2023-08-01T07:18:51;17.20;99.90
11961;DHT22;6040;49.358;11.140;2023-08-01T07:21:19;17.30;99.90
11961;DHT22;6040;49.358;11.140;2023-08-01T07:23:46;17.20;99.90
11961;DHT22;6040;49.358;11.140;2023-08-01T07:26:14;17.20;99.90
11961;DHT22;6040;49.358;11.140;2023-08-01T07:28:40;17.20;99.90
11961;DHT22;6040;49.358;11.140;2023-08-01T07:31:07;17.20;99.90
11961;DHT22;6040;49.358;11.140;2023-08-01T07:33:34;17.20;99.90
11961;DHT22;6040;49.358;11.140;2023-08-01T07:36:02;17.20;99.90
11961;DHT22;6040;49.358;11.140;2023-08-01T07:38:31;17.20;99.90
11961;DHT22;6040;49.358;11.140;2023-08-01T07:41:02;17.20;99.90
11961;DHT22;6040;49.358;11.140;2023-08-01T07:43:29;17.20;99.90
11961;DHT22;6040;49.358;11.140;2023-08-01T07:45:56;17.20;99.90
11961;DHT22;6040;49.358;11.140;2023-08-01T07:48:23;17.20;99.90
11961;DHT22;6040;49.358;11.140;2023-08-01T07:50:50;17.10;99.90
11961;DHT22;6040;49.358;11.140;2023-08-01T07:53:17;17.10;99.90
11961;DHT22;6040;49.358;11.140;2023-08-01T07:55:45;17.10;99.90
11961;DHT22;6040;49.358;11.140;2023-08-01T07:58:12;17.20;99.90
11961;DHT22;6040;49.358;11.140;2023-08-01T08:00:39;17.20;99.90
11961;DHT22;6040;49.358;11.140;2023-08-01T08:03:05;17.30;99.90
11961;DHT22;6040;49.358;11.140;2023-08-01T08:05:33;17.30;99.90
11961;DHT22;6040;49.358;11.140;2023-08-01T08:08:04;17.30;99.90
11961;DHT22;6040;49.358;11.140;2023-08-01T08:10:31;17.30;99.90
11961;DHT22;6040;49.358;11.140;2023-08-01T08:12:59;17.30;99.90
11961;DHT22;6040;49.358;11.140;2023-08-01T08:15:26;17.40;99.90
11961;DHT22;6040;49.358;11.140;2023-08-01T08:17:53;17.40;99.90
11961;DHT22;6040;49.358;11.140;2023-08-01T08:20:20;17.40;99.90
11961;DHT22;6040;49.358;11.140;2023-08-01T08:22:46;17.40;99.90
11961;DHT22;6040;49.358;11.140;2023-08-01T08:25:13;17.40;99.90
11961;DHT22;6040;49.358;11.140;2023-08-01T08:27:40;17.40;99.90
11961;DHT22;6040;49.358;11.140;2023-08-01T08:30:09;17.30;99.90
11961;DHT22;6040;49.358;11.140;2023-08-01T08:32:36;17.30;99.90
11961;DHT22;6040;49.358;11.140;2023-08-01T08:35:04;17.30;99.90
11961;DHT22;6040;49.358;11.140;2023-08-01T08:37:30;17.20;99.90
11961;DHT22;6040;49.358;11.140;2023-08-01T08:39:57;17.20;99.90
11961;DHT22;6040;49.358;11.140;2023-08-01T08:42:24;17.20;99.90
11961;DHT22;6040;49.358;11.140;2023-08-01T08:44:54;17.10;99.90
11961;DHT22;6040;49.358;11.140;2023-08-01T08:47:25;17.10;99.90
11961;DHT22;6040;49.358;11.140;2023-08-01T08:49:52;17.10;99.90
11961;DHT22;6040;49.358;11.140;2023-08-01T08:52:21;17.00;99.90
11961;DHT22;6040;49.358;11.140;2023-08-01T08:54:48;17.00;99.90
11961;DHT22;6040;49.358;11.140;2023-08-01T08:57:16;17.00;99.90
11961;DHT22;6040;49.358;11.140;2023-08-01T08:59:43;17.00;99.90
11961;DHT22;6040;49.358;11.140;2023-08-01T09:02:11;17.00;99.90
11961;DHT22;6040;49.358;11.140;2023-08-01T09:04:40;17.00;99.90
11961;DHT22;6040;49.358;11.140;2023-08-01T09:07:09;17.00;99.90
11961;DHT22;6040;49.358;11.140;2023-08-01T09:09:36;17.00;99.90
11961;DHT22;6040;49.358;11.140;2023-08-01T09:12:04;17.00;99.90
11961;DHT22;6040;49.358;11.140;2023-08-01T09:14:31;17.10;99.90
11961;DHT22;6040;49.358;11.140;2023-08-01T09:17:06;17.10;99.90
11961;DHT22;6040;49.358;11.140;2023-08-01T09:19:33;17.20;99.90
11961;DHT22;6040;49.358;11.140;2023-08-01T09:22:01;17.30;99.90
11961;DHT22;6040;49.358;11.140;2023-08-01T09:24:28;17.30;99.90
11961;DHT22;6040;49.358;11.140;2023-08-01T09:27:02;17.50;99.90
11961;DHT22;6040;49.358;11.140;2023-08-01T09:29:30;17.50;99.90
11961;DHT22;6040;49.358;11.140;2023-08-01T09:31:58;17.50;99.90
11961;DHT22;6040;49.358;11.140;2023-08-01T09:34:26;17.60;99.90
11961;DHT22;6040;49.358;11.140;2023-08-01T09:36:58;17.60;99.90
11961;DHT22;6040;49.358;11.140;2023-08-01T09:39:27;17.60;99.90
11961;DHT22;6040;49.358;11.140;2023-08-01T09:41:58;17.70;99.90
11961;DHT22;6040;49.358;11.140;2023-08-01T09:44:26;17.70;99.90
11961;DHT22;6040;49.358;11.140;2023-08-01T09:46:57;17.90;99.90
11961;DHT22;6040;49.358;11.140;2023-08-01T09:49:24;17.90;99.90
11961;DHT22;6040;49.358;11.140;2023-08-01T09:51:51;18.00;99.90
11961;DHT22;6040;49.358;11.140;2023-08-01T09:54:19;17.90;99.90
11961;DHT22;6040;49.358;11.140;2023-08-01T09:56:49;17.80;99.90
11961;DHT22;6040;49.358;11.140;2023-08-01T09:59:19;17.80;99.90
11961;DHT22;6040;49.358;11.140;2023-08-01T10:01:48;17.90;99.90
11961;DHT22;6040;49.358;11.140;2023-08-01T10:04:18;17.90;99.90
11961;DHT22;6040;49.358;11.140;2023-08-01T10:06:48;17.90;99.90
11961;DHT22;6040;49.358;11.140;2023-08-01T10:09:16;17.80;99.90
11961;DHT22;6040;49.358;11.140;2023-08-01T10:11:44;17.70;99.90
11961;DHT22;6040;49.358;11.140;2023-08-01T10:14:12;17.70;99.90
11961;DHT22;6040;49.358;11.140;2023-08-01T10:16:40;17.80;99.90
11961;DHT22;6040;49.358;11.140;2023-08-01T10:19:09;17.90;99.90
11961;DHT22;6040;49.358;11.140;2023-08-01T10:21:37;18.00;99.90
11961;DHT22;6040;49.358;11.140;2023-08-01T10:24:05;18.00;99.90
11961;DHT22;6040;49.358;11.140;2023-08-01T10:26:33;18.00;99.90
11961;DHT22;6040;49.358;11.140;2023-08-01T10:29:00;17.90;99.90
11961;DHT22;6040;49.358;11.140;2023-08-01T10:31:29;17.90;99.90
11961;DHT22;6040;49.358;11.140;2023-08-01T10:34:04;17.90;99.90
11961;DHT22;6040;49.358;11.140;2023-08-01T10:36:31;17.90;99.90
11961;DHT22;6040;49.358;11.140;2023-08-01T10:38:59;17.90;99.90
11961;DHT22;6040;49.358;11.140;2023-08-01T10:41:27;17.90;99.90
11961;DHT22;6040;49.358;11.140;2023-08-01T10:44:05;17.90;99.90
11961;DHT22;6040;49.358;11.140;2023-08-01T10:46:47;17.90;99.90
11961;DHT22;6040;49.358;11.140;2023-08-01T10:49:14;17.90;99.90
11961;DHT22;6040;49.358;11.140;2023-08-01T10:51:41;17.90;99.90
11961;DHT22;6040;49.358;11.140;2023-08-01T10:54:18;17.90;99.90
11961;DHT22;6040;49.358;11.140;2023-08-01T10:56:46;18.00;99.90
11961;DHT22;6040;49.358;11.140;2023-08-01T10:59:13;18.10;99.90
11961;DHT22;6040;49.358;11.140;2023-08-01T11:01:47;18.10;99.90
11961;DHT22;6040;49.358;11.140;2023-08-01T11:04:15;18.10;99.90
11961;DHT22;6040;49.358;11.140;2023-08-01T11:06:46;18.20;99.90
11961;DHT22;6040;49.358;11.140;2023-08-01T11:09:17;18.30;99.90
11961;DHT22;6040;49.358;11.140;2023-08-01T11:11:47;18.40;99.90
11961;DHT22;6040;49.358;11.140;2023-08-01T11:14:14;18.40;99.90
11961;DHT22;6040;49.358;11.140;2023-08-01T11:16:43;18.60;99.90
11961;DHT22;6040;49.358;11.140;2023-08-01T11:19:19;18.70;99.90
11961;DHT22;6040;49.358;11.140;2023-08-01T11:21:46;19.00;99.90
11961;DHT22;6040;49.358;11.140;2023-08-01T11:24:13;19.00;99.90
11961;DHT22;6040;49.358;11.140;2023-08-01T11:26:41;19.30;99.90
11961;DHT22;6040;49.358;11.140;2023-08-01T11:29:09;19.60;99.90
11961;DHT22;6040;49.358;11.140;2023-08-01T11:31:36;19.70;99.90
11961;DHT22;6040;49.358;11.140;2023-08-01T11:34:03;19.70;99.90
11961;DHT22;6040;49.358;11.140;2023-08-01T11:36:31;19.60;99.90
11961;DHT22;6040;49.358;11.140;2023-08-01T11:38:59;19.50;99.90
11961;DHT22;6040;49.358;11.140;2023-08-01T11:41:27;19.50;99.90
11961;DHT22;6040;49.358;11.140;2023-08-01T11:43:54;19.60;99.90
11961;DHT22;6040;49.358;11.140;2023-08-01T11:46:21;19.70;99.90
11961;DHT22;6040;49.358;11.140;2023-08-01T11:48:48;19.70;99.90
11961;DHT22;6040;49.358;11.140;2023-08-01T11:51:16;19.70;99.90
11961;DHT22;6040;49.358;11.140;2023-08-01T11:53:44;20.00;99.90
11961;DHT22;6040;49.358;11.140;2023-08-01T11:56:20;20.10;99.90
11961;DHT22;6040;49.358;11.140;2023-08-01T11:58:47;20.30;99.90
11961;DHT22;6040;49.358;11.140;2023-08-01T12:01:14;20.30;99.90
11961;DHT22;6040;49.358;11.140;2023-08-01T12:03:45;20.40;99.90
11961;DHT22;6040;49.358;11.140;2023-08-01T12:06:12;20.30;99.90
11961;DHT22;6040;49.358;11.140;2023-08-01T12:08:40;20.20;99.90
11961;DHT22;6040;49.358;11.140;2023-08-01T12:11:19;20.20;99.90
11961;DHT22;6040;49.358;11.140;2023-08-01T12:13:46;20.30;99.90
11961;DHT22;6040;49.358;11.140;2023-08-01T12:16:13;20.40;99.90
11961;DHT22;6040;49.358;11.140;2023-08-01T12:18:45;20.50;99.90
11961;DHT22;6040;49.358;11.140;2023-08-01T12:21:13;20.50;99.90
11961;DHT22;6040;49.358;11.140;2023-08-01T12:23:40;20.10;99.90
11961;DHT22;6040;49.358;11.140;2023-08-01T12:26:07;19.80;99.90
11961;DHT22;6040;49.358;11.140;2023-08-01T12:28:35;19.60;99.90
11961;DHT22;6040;49.358;11.140;2023-08-01T12:31:03;19.40;99.90
11961;DHT22;6040;49.358;11.140;2023-08-01T12:33:30;19.60;99.90
11961;DHT22;6040;49.358;11.140;2023-08-01T12:35:57;19.90;99.90
11961;DHT22;6040;49.358;11.140;2023-08-01T12:38:24;20.30;99.90
11961;DHT22;6040;49.358;11.140;2023-08-01T12:40:51;20.80;99.90
11961;DHT22;6040;49.358;11.140;2023-08-01T12:43:17;21.30;99.90
11961;DHT22;6040;49.358;11.140;2023-08-01T12:45:46;21.60;99.90
11961;DHT22;6040;49.358;11.140;2023-08-01T12:48:13;21.70;99.90
11961;DHT22;6040;49.358;11.140;2023-08-01T12:50:43;21.90;99.90
11961;DHT22;6040;49.358;11.140;2023-08-01T12:53:10;21.80;99.90
11961;DHT22;6040;49.358;11.140;2023-08-01T12:55:37;21.90;99.90
11961;DHT22;6040;49.358;11.140;2023-08-01T12:58:04;22.30;99.90
11961;DHT22;6040;49.358;11.140;2023-08-01T13:00:31;22.20;99.90
11961;DHT22;6040;49.358;11.140;2023-08-01T13:02:59;22.30;99.90
11961;DHT22;6040;49.358;11.140;2023-08-01T13:05:26;22.20;99.90
11961;DHT22;6040;49.358;11.140;2023-08-01T13:07:53;22.30;99.90
11961;DHT22;6040;49.358;11.140;2023-08-01T13:10:19;22.00;99.90
11961;DHT22;6040;49.358;11.140;2023-08-01T13:12:46;21.70;99.90
11961;DHT22;6040;49.358;11.140;2023-08-01T13:15:13;21.30;99.90
11961;DHT22;6040;49.358;11.140;2023-08-01T13:17:40;20.90;99.90
11961;DHT22;6040;49.358;11.140;2023-08-01T13:20:09;20.70;99.90
11961;DHT22;6040;49.358;11.140;2023-08-01T13:22:36;20.50;99.90
11961;DHT22;6040;49.358;11.140;2023-08-01T13:25:03;20.20;99.90
11961;DHT22;6040;49.358;11.140;2023-08-01T13:27:34;19.80;99.90
11961;DHT22;6040;49.358;11.140;2023-08-01T13:30:01;19.50;99.90
11961;DHT22;6040;49.358;11.140;2023-08-01T13:32:28;19.20;99.90
11961;DHT22;6040;49.358;11.140;2023-08-01T13:34:55;19.10;99.90
11961;DHT22;6040;49.358;11.140;2023-08-01T13:37:23;19.00;99.90
11961;DHT22;6040;49.358;11.140;2023-08-01T13:39:50;18.80;99.90
11961;DHT22;6040;49.358;11.140;2023-08-01T13:42:17;18.80;99.90
11961;DHT22;6040;49.358;11.140;2023-08-01T13:44:44;19.00;99.90
11961;DHT22;6040;49.358;11.140;2023-08-01T13:47:10;19.20;99.90
11961;DHT22;6040;49.358;11.140;2023-08-01T13:49:37;19.40;99.90
11961;DHT22;6040;49.358;11.140;2023-08-01T13:52:05;19.50;99.90
11961;DHT22;6040;49.358;11.140;2023-08-01T13:54:33;19.70;99.90
11961;DHT22;6040;49.358;11.140;2023-08-01T13:57:00;19.70;99.90
11961;DHT22;6040;49.358;11.140;2023-08-01T13:59:27;19.70;99.90
11961;DHT22;6040;49.358;11.140;2023-08-01T14:01:54;19.70;99.90
11961;DHT22;6040;49.358;11.140;2023-08-01T14:04:21;19.60;99.90
11961;DHT22;6040;49.358;11.140;2023-08-01T14:06:47;19.60;99.90
11961;DHT22;6040;49.358;11.140;2023-08-01T14:09:14;19.50;99.90
11961;DHT22;6040;49.358;11.140;2023-08-01T14:11:43;19.40;99.90
11961;DHT22;6040;49.358;11.140;2023-08-01T14:14:09;19.30;99.90
11961;DHT22;6040;49.358;11.140;2023-08-01T14:16:36;19.20;99.90
11961;DHT22;6040;49.358;11.140;2023-08-01T14:19:03;19.10;99.90
11961;DHT22;6040;49.358;11.140;2023-08-01T14:21:34;18.90;99.90
11961;DHT22;6040;49.358;11.140;2023-08-01T14:24:01;18.70;99.90
11961;DHT22;6040;49.358;11.140;2023-08-01T14:26:27;18.50;99.90
11961;DHT22;6040;49.358;11.140;2023-08-01T14:28:56;18.40;99.90
11961;DHT22;6040;49.358;11.140;2023-08-01T14:31:22;18.40;99.90
11961;DHT22;6040;49.358;11.140;2023-08-01T14:33:49;18.50;99.90
11961;DHT22;6040;49.358;11.140;2023-08-01T14:36:16;18.50;99.90
11961;DHT22;6040;49.358;11.140;2023-08-01T14:38:43;18.70;99.90
11961;DHT22;6040;49.358;11.140;2023-08-01T14:41:09;18.80;99.90
11961;DHT22;6040;49.358;11.140;2023-08-01T14:43:36;19.20;99.90
11961;DHT22;6040;49.358;11.140;2023-08-01T14:46:04;19.50;99.90
11961;DHT22;6040;49.358;11.140;2023-08-01T14:48:31;19.90;99.90
11961;DHT22;6040;49.358;11.140;2023-08-01T14:50:58;20.10;99.90
11961;DHT22;6040;49.358;11.140;2023-08-01T14:53:25;20.10;99.90
11961;DHT22;6040;49.358;11.140;2023-08-01T14:55:57;20.10;99.90
11961;DHT22;6040;49.358;11.140;2023-08-01T14:58:25;20.20;99.90
11961;DHT22;6040;49.358;11.140;2023-08-01T15:00:52;20.20;99.90
11961;DHT22;6040;49.358;11.140;2023-08-01T15:03:20;20.40;99.90
11961;DHT22;6040;49.358;11.140;2023-08-01T15:05:47;20.50;99.90
11961;DHT22;6040;49.358;11.140;2023-08-01T15:08:14;20.50;99.90
11961;DHT22;6040;49.358;11.140;2023-08-01T15:10:41;20.50;99.90
11961;DHT22;6040;49.358;11.140;2023-08-01T15:13:08;20.30;99.90
11961;DHT22;6040;49.358;11.140;2023-08-01T15:15:35;20.20;99.90
11961;DHT22;6040;49.358;11.140;2023-08-01T15:18:02;20.10;99.90
11961;DHT22;6040;49.358;11.140;2023-08-01T15:20:31;20.00;99.90
11961;DHT22;6040;49.358;11.140;2023-08-01T15:23:01;20.00;99.90
11961;DHT22;6040;49.358;11.140;2023-08-01T15:25:28;20.30;99.90
11961;DHT22;6040;49.358;11.140;2023-08-01T15:27:55;20.50;99.90
11961;DHT22;6040;49.358;11.140;2023-08-01T15:30:22;20.70;99.90
11961;DHT22;6040;49.358;11.140;2023-08-01T15:32:48;20.70;99.90